Norwegian Dawn — C6FT7 — position and weather

sailwx.info

Track history (hours):
 
Tides and Currents Weather Stations Pressure Air Temp Water Temp Dewpoint Dewpoint Depression Visibility Wind Speed Wind Dir Waves Ship Positions

Norwegian Dawn

Operator: Norwegian Cruise Line

Last reported at 2019-Apr-24 03:00 UTC. Time now 2019-Apr-24 22:42 UTC.
Position N 15°54' W 088°18'.

Type: Ship. MMSI: 311307000.

Wind from 090 at 30 knots

Barometer 1011.0 mb
Air temperature 27.3 ° C
Visibility: greater than 10.8 NM
Dewpoint 23.8 ° C
Water temperature 29.0 ° C

Date/timePositionNaut miles runAvg speedWind from/ knotsBaromVisibWave heightAir tempDewpointWater temp
2019-Apr-24 03:00N 15°54' W 088°18'28411.8 090 / 301011.010.8 27.323.829.0
2019-Apr-23 03:00N 20°06' W 086°00'40016.0 100 / 211015.010.8 26.321.529.0
2019-Apr-22 02:00N 24°18' W 080°24'5919.2 310 / 61019.010.8 26.116.628.2
2019-Apr-21 22:54N 25°11' W 079°55'819.1
2019-Apr-21 22:30N 25°19' W 079°54'918.6
2019-Apr-21 22:00N 25°28' W 079°55'918.8
2019-Apr-21 21:30N 25°36' W 079°59'816.1
2019-Apr-21 21:00N 25°44' W 080°02'611.2
2019-Apr-21 20:30N 25°46' W 080°08'2 4.2
2019-Apr-21 19:58N 25°47' W 080°10'0 0.0
2019-Apr-21 19:28N 25°47' W 080°10'0 0.0
2019-Apr-21 18:58N 25°47' W 080°10'0 0.0
2019-Apr-21 18:28N 25°47' W 080°10'0 0.0
2019-Apr-21 17:58N 25°47' W 080°10'0 0.0
2019-Apr-21 17:28N 25°47' W 080°10'0 0.0
2019-Apr-21 16:58N 25°47' W 080°10'0 0.0
2019-Apr-21 16:28N 25°47' W 080°10'0 0.0
2019-Apr-21 15:58N 25°47' W 080°10'0 0.0
2019-Apr-21 15:28N 25°47' W 080°10'0 0.0
2019-Apr-21 14:58N 25°47' W 080°10'0 0.0
2019-Apr-21 14:28N 25°47' W 080°10'0 0.0
2019-Apr-21 13:58N 25°47' W 080°10'0 0.0
2019-Apr-21 13:28N 25°47' W 080°10'0 0.0
2019-Apr-21 12:58N 25°47' W 080°10'0 0.0
2019-Apr-21 12:28N 25°47' W 080°10'0 0.0
2019-Apr-21 11:58N 25°47' W 080°10'0 0.0
2019-Apr-21 11:28N 25°47' W 080°10'0 0.0
2019-Apr-21 10:58N 25°47' W 080°10'0 0.0
2019-Apr-21 10:28N 25°47' W 080°10'0 0.0
2019-Apr-21 09:46N 25°47' W 080°10'0 0.0
2019-Apr-21 09:22N 25°47' W 080°10'0 1.3
2019-Apr-21 09:00N 25°47' W 080°11'2 4.8
2019-Apr-21 08:31N 25°46' W 080°08'510.9
2019-Apr-21 08:01N 25°47' W 080°02'714.2
2019-Apr-21 07:30N 25°45' W 079°55'917.5
2019-Apr-21 07:00N 25°39' W 079°48'816.8
2019-Apr-21 06:30N 25°32' W 079°42'917.4
2019-Apr-21 06:00N 25°24' W 079°39'7719.3
2019-Apr-21 02:00N 24°18' W 080°24'45519.8 330 / 211016.010.8 24.117.626.2
2019-Apr-20 03:00N 19°42' W 086°54'62 2.6 360 / 471012.010.8 26.118.827.2
2019-Apr-19 03:00N 20°30' W 086°12'41516.6 140 / 321010.010.8 27.124.629.2
2019-Apr-18 02:00N 24°30' W 080°06'3718.8 100 / 161016.210.8 25.522.628.3
2019-Apr-18 00:00N 25°07' W 079°57'917.4
2019-Apr-17 23:30N 25°15' W 079°54'917.3
2019-Apr-17 23:00N 25°23' W 079°53'816.3
2019-Apr-17 22:30N 25°31' W 079°54'917.3
2019-Apr-17 22:00N 25°39' W 079°59'816.2
2019-Apr-17 21:31N 25°45' W 080°04'4 8.9
2019-Apr-17 21:01N 25°46' W 080°09'2 3.2
2019-Apr-17 20:30N 25°47' W 080°11'1 1.4
2019-Apr-17 19:58N 25°47' W 080°10'0 0.0
2019-Apr-17 19:28N 25°47' W 080°10'0 0.0
2019-Apr-17 18:58N 25°47' W 080°10'0 0.0
2019-Apr-17 18:28N 25°47' W 080°10'0 0.0
2019-Apr-17 17:55N 25°47' W 080°10'0 0.0
2019-Apr-17 17:28N 25°47' W 080°10'0 0.0
2019-Apr-17 16:52N 25°47' W 080°10'0 0.0
2019-Apr-17 16:28N 25°47' W 080°10'0 0.0
2019-Apr-17 15:58N 25°47' W 080°10'0 0.0
2019-Apr-17 15:28N 25°47' W 080°10'0 0.0
2019-Apr-17 14:58N 25°47' W 080°10'0 0.0
2019-Apr-17 14:28N 25°47' W 080°10'0 0.0
2019-Apr-17 13:58N 25°47' W 080°10'0 0.0
2019-Apr-17 13:28N 25°47' W 080°10'0 0.0
2019-Apr-17 12:58N 25°47' W 080°10'0 0.0
2019-Apr-17 12:28N 25°47' W 080°10'0 0.0
2019-Apr-17 11:58N 25°47' W 080°10'0 0.0
2019-Apr-17 11:28N 25°47' W 080°10'0 0.0
2019-Apr-17 10:58N 25°47' W 080°10'0 0.1
2019-Apr-17 10:30N 25°47' W 080°10'2 4.5
2019-Apr-17 10:00N 25°46' W 080°08'611.2
2019-Apr-17 09:30N 25°46' W 080°01'611.4
2019-Apr-17 09:00N 25°45' W 079°55'714.8
2019-Apr-17 08:31N 25°40' W 079°49'816.0
2019-Apr-17 08:00N 25°34' W 079°43'917.7
2019-Apr-17 07:30N 25°26' W 079°40'8715.7
2019-Apr-17 02:00N 24°12' W 080°30'42217.6 080 / 211018.210.8 27.322.529.3
2019-Apr-16 02:00N 20°00' W 086°36'24710.3 100 / 191016.210.8 27.325.928.3
2019-Apr-15 02:00N 16°06' W 088°00'   120 / 331010.1 5.4 29.628.029.2
Track history (hours):
 
Tides and Currents Weather Stations Pressure Air Temp Water Temp Dewpoint Dewpoint Depression Visibility Wind Speed Wind Dir Waves Ship Positions

Norwegian Dawn

Operator: Norwegian Cruise Line

Last reported at 2019-Apr-24 03:00 UTC. Time now 2019-Apr-24 22:42 UTC.
Position N 15°54' W 088°18'.

Type: Ship. MMSI: 311307000.

Wind from 090 at 30 knots

Barometer 1011.0 mb
Air temperature 27.3 ° C
Visibility: greater than 10.8 NM
Dewpoint 23.8 ° C
Water temperature 29.0 ° C

Date/timePositionNaut miles runAvg speedWind from/ knotsBaromVisibWave heightAir tempDewpointWater temp
2019-Apr-24 03:00N 15°54' W 088°18'28411.8 090 / 301011.010.8 27.323.829.0
2019-Apr-23 03:00N 20°06' W 086°00'40016.0 100 / 211015.010.8 26.321.529.0
2019-Apr-22 02:00N 24°18' W 080°24'5919.2 310 / 61019.010.8 26.116.628.2
2019-Apr-21 22:54N 25°11' W 079°55'819.1
2019-Apr-21 22:30N 25°19' W 079°54'918.6
2019-Apr-21 22:00N 25°28' W 079°55'918.8
2019-Apr-21 21:30N 25°36' W 079°59'816.1
2019-Apr-21 21:00N 25°44' W 080°02'611.2
2019-Apr-21 20:30N 25°46' W 080°08'2 4.2
2019-Apr-21 19:58N 25°47' W 080°10'0 0.0
2019-Apr-21 19:28N 25°47' W 080°10'0 0.0
2019-Apr-21 18:58N 25°47' W 080°10'0 0.0
2019-Apr-21 18:28N 25°47' W 080°10'0 0.0
2019-Apr-21 17:58N 25°47' W 080°10'0 0.0
2019-Apr-21 17:28N 25°47' W 080°10'0 0.0
2019-Apr-21 16:58N 25°47' W 080°10'0 0.0
2019-Apr-21 16:28N 25°47' W 080°10'0 0.0
2019-Apr-21 15:58N 25°47' W 080°10'0 0.0
2019-Apr-21 15:28N 25°47' W 080°10'0 0.0
2019-Apr-21 14:58N 25°47' W 080°10'0 0.0
2019-Apr-21 14:28N 25°47' W 080°10'0 0.0
2019-Apr-21 13:58N 25°47' W 080°10'0 0.0
2019-Apr-21 13:28N 25°47' W 080°10'0 0.0
2019-Apr-21 12:58N 25°47' W 080°10'0 0.0
2019-Apr-21 12:28N 25°47' W 080°10'0 0.0
2019-Apr-21 11:58N 25°47' W 080°10'0 0.0
2019-Apr-21 11:28N 25°47' W 080°10'0 0.0
2019-Apr-21 10:58N 25°47' W 080°10'0 0.0
2019-Apr-21 10:28N 25°47' W 080°10'0 0.0
2019-Apr-21 09:46N 25°47' W 080°10'0 0.0
2019-Apr-21 09:22N 25°47' W 080°10'0 1.3
2019-Apr-21 09:00N 25°47' W 080°11'2 4.8
2019-Apr-21 08:31N 25°46' W 080°08'510.9
2019-Apr-21 08:01N 25°47' W 080°02'714.2
2019-Apr-21 07:30N 25°45' W 079°55'917.5
2019-Apr-21 07:00N 25°39' W 079°48'816.8
2019-Apr-21 06:30N 25°32' W 079°42'917.4
2019-Apr-21 06:00N 25°24' W 079°39'7719.3
2019-Apr-21 02:00N 24°18' W 080°24'45519.8 330 / 211016.010.8 24.117.626.2
2019-Apr-20 03:00N 19°42' W 086°54'62 2.6 360 / 471012.010.8 26.118.827.2
2019-Apr-19 03:00N 20°30' W 086°12'41516.6 140 / 321010.010.8 27.124.629.2
2019-Apr-18 02:00N 24°30' W 080°06'3718.8 100 / 161016.210.8 25.522.628.3
2019-Apr-18 00:00N 25°07' W 079°57'917.4
2019-Apr-17 23:30N 25°15' W 079°54'917.3
2019-Apr-17 23:00N 25°23' W 079°53'816.3
2019-Apr-17 22:30N 25°31' W 079°54'917.3
2019-Apr-17 22:00N 25°39' W 079°59'816.2
2019-Apr-17 21:31N 25°45' W 080°04'4 8.9
2019-Apr-17 21:01N 25°46' W 080°09'2 3.2
2019-Apr-17 20:30N 25°47' W 080°11'1 1.4
2019-Apr-17 19:58N 25°47' W 080°10'0 0.0
2019-Apr-17 19:28N 25°47' W 080°10'0 0.0
2019-Apr-17 18:58N 25°47' W 080°10'0 0.0
2019-Apr-17 18:28N 25°47' W 080°10'0 0.0
2019-Apr-17 17:55N 25°47' W 080°10'0 0.0
2019-Apr-17 17:28N 25°47' W 080°10'0 0.0
2019-Apr-17 16:52N 25°47' W 080°10'0 0.0
2019-Apr-17 16:28N 25°47' W 080°10'0 0.0
2019-Apr-17 15:58N 25°47' W 080°10'0 0.0
2019-Apr-17 15:28N 25°47' W 080°10'0 0.0
2019-Apr-17 14:58N 25°47' W 080°10'0 0.0
2019-Apr-17 14:28N 25°47' W 080°10'0 0.0
2019-Apr-17 13:58N 25°47' W 080°10'0 0.0
2019-Apr-17 13:28N 25°47' W 080°10'0 0.0
2019-Apr-17 12:58N 25°47' W 080°10'0 0.0
2019-Apr-17 12:28N 25°47' W 080°10'0 0.0
2019-Apr-17 11:58N 25°47' W 080°10'0 0.0
2019-Apr-17 11:28N 25°47' W 080°10'0 0.0
2019-Apr-17 10:58N 25°47' W 080°10'0 0.1
2019-Apr-17 10:30N 25°47' W 080°10'2 4.5
2019-Apr-17 10:00N 25°46' W 080°08'611.2
2019-Apr-17 09:30N 25°46' W 080°01'611.4
2019-Apr-17 09:00N 25°45' W 079°55'714.8
2019-Apr-17 08:31N 25°40' W 079°49'816.0
2019-Apr-17 08:00N 25°34' W 079°43'917.7
2019-Apr-17 07:30N 25°26' W 079°40'8715.7
2019-Apr-17 02:00N 24°12' W 080°30'42217.6 080 / 211018.210.8 27.322.529.3
2019-Apr-16 02:00N 20°00' W 086°36'24710.3 100 / 191016.210.8 27.325.928.3
2019-Apr-15 02:00N 16°06' W 088°00'   120 / 331010.1 5.4 29.628.029.2

Dump ship's entire track history